• Join FlightAware (Why Join?)
  • Login
  • US Flag 
09:17PM EDT


 

Airport Tracker/Info


-or-


 

Live Flight TrackerFlight Track Log ✈ SWA3963 ✈ 17-Jun-2013 ✈ KLAX - KOAK

Flight Track Log - Related Links

Times and Time Zones

All times are in EDT time to prevent confusion due to time zone crossing. See the SWA3963 flight status page for this flight to view local times or setup timezone preferences in your user account.

Time Position Orientation Groundspeed Altitude Reporting Facility
EDT Latitude Longitude Course Direction KTS MPH feet Rate Location/Type
08:34PM 33.9500 -118.4500 239° Southwest 147 169 1,300  Level Southern California TRACON
08:35PM 33.9442 -118.4617 239° Southwest 160 184 1,700 1,560 Climbing Los Angeles Center
08:36PM 33.9403 -118.5403 267° West 242 278 3,500 2,280 Climbing Los Angeles Center
08:37PM 33.9375 -118.6372 268° West 271 312 6,500 2,640 Climbing Los Angeles Center
08:38PM 33.9983 -118.6950 322° Northwest 281 323 9,000 1,260 Climbing Los Angeles Center
08:39PM 34.0789 -118.6797 North 301 346 9,200 1,440 Climbing Los Angeles Center
08:40PM 34.1511 -118.6350 27° Northeast 297 342 12,000 2,880 Climbing Los Angeles Center
08:41PM 34.2358 -118.6228 North 315 362 15,200 3,000 Climbing Los Angeles Center
08:42PM 34.3189 -118.6575 341° North 315 362 18,200 2,580 Climbing Los Angeles Center
08:43PM 34.4072 -118.6956 340° North 336 387 20,600 1,740 Climbing Los Angeles Center
08:44PM 34.5086 -118.7381 341° North 392 451 21,800 1,680 Climbing Los Angeles Center
08:45PM 34.6364 -118.7925 341° North 406 467 24,500 2,400 Climbing Los Angeles Center
08:46PM 34.7703 -118.8494 341° North 421 484 27,300 2,220 Climbing Los Angeles Center
08:47PM 34.8683 -118.9261 327° Northwest 422 486 29,200 1,980 Climbing Los Angeles Center
08:48PM 34.9572 -119.0133 321° Northwest 415 478 31,500 2,040 Climbing Los Angeles Center
08:49PM 35.0461 -119.1000 321° Northwest 412 474 33,500 1,860 Climbing Los Angeles Center
08:50PM 35.1361 -119.1856 322° Northwest 411 473 35,400 1,200 Climbing Los Angeles Center
08:51PM 35.2411 -119.2889 321° Northwest 408 470 36,000 240 Climbing Los Angeles Center
08:52PM 35.3289 -119.3736 322° Northwest 405 466 36,000  Level Los Angeles Center
08:53PM 35.4147 -119.4592 321° Northwest 402 463 36,000  Level Los Angeles Center
08:54PM 35.5017 -119.5461 321° Northwest 404 465 36,000  Level Los Angeles Center
08:55PM 35.5867 -119.6297 321° Northwest 400 460 36,000  Level Los Angeles Center
08:56PM 35.6364 -119.6800 321° Northwest 402 463 36,000  Level Oakland Center
08:57PM 35.7217 -119.7667 320° Northwest 401 461 36,000  Level Oakland Center
08:58PM 35.8086 -119.8517 322° Northwest 401 461 36,000  Level Oakland Center
08:59PM 35.9103 -119.9544 321° Northwest 397 457 36,000  Level Oakland Center
09:00PM 35.9950 -120.0406 321° Northwest 398 458 36,000  Level Oakland Center
09:01PM 36.0822 -120.1300 320° Northwest 407 468 36,000  Level Oakland Center
09:02PM 36.1669 -120.2150 321° Northwest 397 457 36,000  Level Oakland Center
09:03PM 36.2539 -120.3017 321° Northwest 402 463 36,000 -300 Level Oakland Center
09:04PM 36.3392 -120.3931 319° Northwest 406 467 35,400 -1,620 Descending Oakland Center
09:05PM 36.4233 -120.4789 321° Northwest 396 456 32,800 -2,460 Descending Oakland Center
09:06PM 36.5092 -120.5628 322° Northwest 393 452 30,400 -2,460 Descending Oakland Center
09:07PM 36.6128 -120.6708 320° Northwest 405 466 27,800 -2,400 Descending Oakland Center
09:08PM 36.7008 -120.7653 319° Northwest 416 479 25,600 -2,160 Descending Oakland Center
09:09PM 36.7833 -120.8522 320° Northwest 392 451 23,400 -2,040 Descending Oakland Center
09:10PM 36.8589 -120.9433 316° Northwest 383 441 21,500 -1,920 Descending Oakland Center
09:11PM 36.9353 -121.0267 319° Northwest 368 423 19,500 -1,860 Descending Oakland Center
09:12PM 37.0064 -121.1114 316° Northwest 357 411 17,700 -2,100 Descending Oakland Center
09:13PM 37.0881 -121.2058 317° Northwest 348 400 15,300 -2,040 Descending Oakland Center
09:14PM 37.1483 -121.2750 318° Northwest 347 399 13,600 -1,860 Descending Oakland Center
09:15PM 37.2194 -121.3550 318° Northwest 344 396 11,600 -1,800 Descending Oakland Center
09:16PM 37.2983 -121.4492 316° Northwest 324 373 10,000 -1,380 Descending Oakland Center
09:18PM 37.3544 -121.5142 317° Northwest 296 341 8,800 -1,140 Descending Oakland Center
09:18PM 37.4000 -121.5667 318° Northwest 287 330 8,000 -480 Descending Northern Cal TRACON
09:19PM 37.4667 -121.6333 322° Northwest 286 329 8,000 -480 Level Northern Cal TRACON
09:20PM 37.5333 -121.7000 322° Northwest 287 330 7,100 -960 Descending Northern Cal TRACON
09:21PM 37.5667 -121.7667 302° West 265 305 6,100 -840 Descending Northern Cal TRACON
09:22PM 37.5833 -121.8500 284° West 233 268 5,500 -840 Descending Northern Cal TRACON
09:23PM 37.6000 -121.9333 284° West 229 264 4,500 -900 Descending Northern Cal TRACON
09:24PM 37.6000 -122.0000 270° West 218 251 3,800 -900 Descending Northern Cal TRACON
09:25PM 37.6167 -122.0667 288° West 202 232 2,800 -1,020 Descending Northern Cal TRACON
09:26PM 37.6500 -122.1333 302° West 183 211 1,800 -900 Descending Northern Cal TRACON
09:27PM 37.6667 -122.1667 302° West 136 157 1,000 -780 Descending Northern Cal TRACON
09:28PM 37.6833 -122.2000 302° West 113 130 300 -720 Descending Northern Cal TRACON
09:31PM 37.7167 -122.2167 270° West  Level FlightAware Approximate
09:38PM 37.7213 -122.2207 270° West  Level Estimated